Time;durP1;ratioP1;P1;durP2;ratioP2;P2;SDS_P1;SDS_P2;PMS_P1;PMS_P2;Temp;Humidity;BMP_temperature;BMP_pressure;BME280_temperature;BME280_humidity;BME280_pressure;Samples;Min_cycle;Max_cycle;Signal;HPM_P1;HPM_P2
2023/12/23 00:03:51;;;;;;;0.40;0.40;;;;;;;6.66;65.23;99163.81;10515021;28;20048;-64
2023/12/23 00:08:53;;;;;;;2.67;0.52;;;;;;;6.74;65.47;99192.81;10499152;28;20058;-64
2023/12/23 00:13:55;;;;;;;2.95;1.00;;;;;;;6.58;66.38;99185.94;10517513;28;20048;-64
2023/12/23 00:18:57;;;;;;;1.25;0.70;;;;;;;6.60;66.43;99176.31;10491871;28;20058;-63
2023/12/23 00:23:59;;;;;;;0.20;0.20;;;;;;;6.54;66.83;99184.44;10517507;28;20055;-63
2023/12/23 00:29:01;;;;;;;0.40;0.32;;;;;;;6.60;66.66;99212.69;10499134;28;20143;-63
2023/12/23 00:34:04;;;;;;;0.60;0.50;;;;;;;6.55;67.16;99206.91;10498844;28;20047;-64
2023/12/23 00:39:06;;;;;;;0.82;0.82;;;;;;;6.54;67.34;99213.88;10516702;28;20044;-64
2023/12/23 00:44:08;;;;;;;0.50;0.50;;;;;;;6.48;67.19;99205.56;10516530;28;20558;-64
2023/12/23 00:49:10;;;;;;;0.70;0.40;;;;;;;6.50;66.92;99211.50;10532451;28;20052;-64
2023/12/23 00:54:12;;;;;;;3.50;0.52;;;;;;;6.55;67.23;99209.53;10516091;28;20093;-65
2023/12/23 00:59:15;;;;;;;1.17;0.60;;;;;;;6.65;66.80;99224.53;10531719;27;20038;-65
2023/12/23 01:04:17;;;;;;;0.47;0.30;;;;;;;6.73;66.64;99229.28;10516091;28;20079;-65
2023/12/23 01:09:19;;;;;;;2.85;0.60;;;;;;;6.73;66.47;99237.09;10516254;28;20062;-64
2023/12/23 01:14:21;;;;;;;0.28;0.28;;;;;;;6.76;66.46;99226.50;10497511;28;20131;-64
2023/12/23 01:19:23;;;;;;;0.40;0.40;;;;;;;6.82;66.07;99226.16;10515979;28;20047;-64
2023/12/23 01:24:27;;;;;;;0.43;0.43;;;;;;;6.99;65.92;99236.47;10497832;28;20187;-65
2023/12/23 01:29:29;;;;;;;0.30;0.30;;;;;;;6.99;65.62;99244.28;10517696;28;20090;-65
2023/12/23 01:34:31;;;;;;;0.82;0.50;;;;;;;7.03;65.76;99240.56;10523623;28;20052;-65
2023/12/23 01:39:33;;;;;;;0.65;0.40;;;;;;;7.00;65.88;99251.13;10524267;28;20132;-64
2023/12/23 01:44:35;;;;;;;0.63;0.40;;;;;;;7.03;65.86;99262.22;10522780;28;20117;-63
2023/12/23 01:49:38;;;;;;;0.75;0.35;;;;;;;7.08;65.49;99254.16;10523686;28;20044;-63
2023/12/23 01:54:40;;;;;;;0.88;0.55;;;;;;;6.90;65.68;99252.56;10506129;28;20048;-63
2023/12/23 01:59:42;;;;;;;0.40;0.40;;;;;;;7.03;65.53;99245.78;10505690;28;20052;-63
2023/12/23 02:04:44;;;;;;;0.38;0.38;;;;;;;7.09;65.67;99259.28;10521848;28;20141;-63
2023/12/23 02:09:49;;;;;;;2.05;0.70;;;;;;;7.16;65.49;99271.00;10522466;28;20064;-63
2023/12/23 02:15:17;;;;;;;0.30;0.30;;;;;;;7.28;65.51;99245.22;10521837;28;20078;-63
2023/12/23 02:20:20;;;;;;;1.35;0.50;;;;;;;7.11;65.89;99261.78;10518838;28;20058;-63
2023/12/23 02:25:22;;;;;;;0.88;0.47;;;;;;;7.16;66.00;99249.38;10504600;28;20496;-63
2023/12/23 02:30:25;;;;;;;0.57;0.57;;;;;;;7.15;65.91;99229.47;10503562;28;20043;-63
2023/12/23 02:35:27;;;;;;;0.55;0.43;;;;;;;7.11;66.10;99233.19;10520712;28;20059;-64
2023/12/23 02:40:29;;;;;;;0.40;0.40;;;;;;;7.03;66.57;99215.41;10503444;28;20048;-64
2023/12/23 02:45:31;;;;;;;0.38;0.28;;;;;;;7.07;66.45;99229.06;10503157;28;20929;-64
2023/12/23 02:50:33;;;;;;;0.30;0.30;;;;;;;7.21;66.37;99236.94;10502741;28;20420;-64
2023/12/23 02:55:36;;;;;;;1.00;0.50;;;;;;;7.16;66.57;99221.59;10500413;28;20048;-64
2023/12/23 03:00:38;;;;;;;0.80;0.70;;;;;;;7.18;66.44;99222.34;10520292;28;20055;-65
2023/12/23 03:05:40;;;;;;;0.57;0.57;;;;;;;7.27;66.29;99205.38;10520134;28;20043;-64
2023/12/23 03:10:43;;;;;;;0.63;0.60;;;;;;;7.17;66.74;99206.81;10517916;28;20364;-64
2023/12/23 03:15:45;;;;;;;0.40;0.40;;;;;;;7.30;66.46;99196.56;10519537;28;20424;-64
2023/12/23 03:20:48;;;;;;;1.27;0.50;;;;;;;7.36;66.46;99201.41;10512559;28;20139;-64
2023/12/23 03:25:50;;;;;;;0.45;0.45;;;;;;;7.46;66.13;99197.34;10519706;28;20592;-65
2023/12/23 03:30:52;;;;;;;0.85;0.60;;;;;;;7.24;67.15;99186.50;10517887;28;20146;-64
2023/12/23 03:35:58;;;;;;;0.40;0.40;;;;;;;7.35;67.05;99179.75;10500660;28;20056;-64
2023/12/23 03:41:00;;;;;;;0.50;0.50;;;;;;;7.28;67.21;99177.59;10518831;28;20527;-65
2023/12/23 03:46:03;;;;;;;2.22;1.02;;;;;;;7.33;67.24;99172.97;10501261;28;20048;-65
2023/12/23 03:51:07;;;;;;;0.65;0.52;;;;;;;7.32;67.43;99168.69;10517884;28;20476;-64
2023/12/23 03:56:09;;;;;;;1.80;0.68;;;;;;;7.36;67.28;99146.78;10518287;28;20052;-64
2023/12/23 04:01:11;;;;;;;1.75;0.95;;;;;;;7.32;67.48;99153.94;10491958;28;20040;-65
2023/12/23 04:06:13;;;;;;;1.92;1.30;;;;;;;7.26;67.74;99158.66;10517304;28;20051;-65
2023/12/23 04:11:16;;;;;;;3.83;0.65;;;;;;;7.41;67.53;99144.72;10499603;28;20052;-65
2023/12/23 04:16:18;;;;;;;1.52;1.02;;;;;;;7.51;67.36;99143.28;10517894;28;20056;-64
2023/12/23 04:21:20;;;;;;;1.70;0.75;;;;;;;7.52;67.49;99134.53;10532999;28;20048;-65
2023/12/23 04:26:22;;;;;;;1.13;0.85;;;;;;;7.58;67.26;99123.75;10499029;28;20066;-65
2023/12/23 04:31:24;;;;;;;1.73;1.20;;;;;;;7.49;67.53;99124.31;10517607;28;20160;-65
2023/12/23 04:36:26;;;;;;;1.77;0.82;;;;;;;7.64;67.24;99111.22;10516512;28;20079;-64
2023/12/23 04:41:28;;;;;;;1.92;1.35;;;;;;;7.79;66.98;99112.88;10499646;28;20397;-64
2023/12/23 04:46:31;;;;;;;3.92;1.10;;;;;;;7.74;67.10;99114.09;10498793;28;20050;-64
2023/12/23 04:51:33;;;;;;;3.30;1.20;;;;;;;7.65;67.52;99112.06;10516582;28;20106;-64
2023/12/23 04:56:35;;;;;;;2.75;1.08;;;;;;;7.72;67.50;99122.00;10493491;28;20076;-64
2023/12/23 05:01:37;;;;;;;3.33;1.00;;;;;;;7.63;67.74;99112.13;10497748;28;20052;-64
2023/12/23 05:06:39;;;;;;;1.95;1.00;;;;;;;7.72;67.77;99119.41;10514963;28;20032;-64
2023/12/23 05:11:42;;;;;;;1.52;1.23;;;;;;;7.71;67.90;99112.50;10516790;28;20491;-64
2023/12/23 05:16:44;;;;;;;1.60;1.33;;;;;;;7.71;68.10;99111.69;10498524;28;20481;-65
2023/12/23 05:21:46;;;;;;;3.38;1.10;;;;;;;7.78;67.98;99099.97;10515098;28;20151;-63
2023/12/23 05:26:48;;;;;;;2.47;1.10;;;;;;;7.74;68.14;99093.28;10494477;28;20478;-63
2023/12/23 05:31:50;;;;;;;1.92;1.02;;;;;;;7.72;68.47;99092.53;10497796;28;20565;-64
2023/12/23 05:36:52;;;;;;;1.08;0.80;;;;;;;7.68;68.51;99078.88;10515601;28;20060;-63
2023/12/23 05:41:54;;;;;;;0.63;0.63;;;;;;;7.68;68.71;99078.88;10484398;28;20052;-64
2023/12/23 05:46:56;;;;;;;4.25;0.80;;;;;;;7.67;68.73;99074.59;10501885;28;20040;-64
2023/12/23 05:51:59;;;;;;;1.85;0.80;;;;;;;7.80;68.47;99083.31;10500975;28;20059;-64
2023/12/23 05:57:01;;;;;;;2.35;1.10;;;;;;;7.74;68.67;99085.47;10481715;28;20043;-64
2023/12/23 06:02:05;;;;;;;0.90;0.70;;;;;;;7.76;68.81;99081.00;10498594;28;20606;-64
2023/12/23 06:07:08;;;;;;;1.00;0.73;;;;;;;7.85;68.59;99072.63;10508231;28;20590;-64
2023/12/23 06:12:09;;;;;;;1.92;0.90;;;;;;;7.86;68.43;99059.50;10507905;28;20557;-64
2023/12/23 06:17:13;;;;;;;0.77;0.73;;;;;;;7.85;68.60;99064.81;10511356;28;20511;-64
2023/12/23 06:22:15;;;;;;;3.17;0.82;;;;;;;7.89;68.44;99054.13;10496989;28;20051;-63
2023/12/23 06:27:17;;;;;;;1.63;0.63;;;;;;;7.84;68.67;99042.31;10496656;28;20059;-64
2023/12/23 06:32:19;;;;;;;0.90;0.60;;;;;;;7.84;68.50;99048.34;10515364;28;20504;-64
2023/12/23 06:37:21;;;;;;;1.33;0.88;;;;;;;7.84;68.68;99047.50;10514151;28;20052;-64
2023/12/23 06:42:23;;;;;;;1.23;0.75;;;;;;;7.90;68.51;99049.72;10512574;28;20047;-65
2023/12/23 06:47:25;;;;;;;1.33;1.00;;;;;;;7.83;68.67;99051.88;10514264;28;20040;-65
2023/12/23 06:52:27;;;;;;;1.38;0.80;;;;;;;7.84;68.64;99043.16;10513172;28;20036;-64
2023/12/23 06:57:29;;;;;;;1.45;0.85;;;;;;;7.64;69.29;99038.34;10517630;28;20039;-65
2023/12/23 07:02:31;;;;;;;2.45;1.08;;;;;;;7.78;69.00;99035.72;10500966;28;20052;-64
2023/12/23 07:07:33;;;;;;;1.25;0.68;;;;;;;7.62;69.69;99019.41;10501171;28;20119;-65
2023/12/23 07:12:35;;;;;;;1.33;0.88;;;;;;;7.75;69.24;99033.31;10501703;28;20040;-66
2023/12/23 07:17:38;;;;;;;0.82;0.65;;;;;;;7.60;69.87;99034.28;10502194;28;20123;-65
2023/12/23 07:22:43;;;;;;;3.00;1.25;;;;;;;7.76;69.47;99039.34;10519387;28;20416;-66
2023/12/23 07:27:45;;;;;;;1.45;0.80;;;;;;;7.80;69.30;99039.06;10517911;28;20040;-65
2023/12/23 07:32:47;;;;;;;2.83;0.98;;;;;;;7.86;69.21;99038.69;10519401;28;20288;-64
2023/12/23 07:37:50;;;;;;;0.55;0.50;;;;;;;7.84;69.26;99037.09;10518562;28;20549;-64
2023/12/23 07:42:52;;;;;;;1.10;0.75;;;;;;;7.74;69.68;99042.06;10516960;28;20043;-64
2023/12/23 07:47:55;;;;;;;3.85;0.80;;;;;;;7.86;69.44;99051.69;10500833;28;20407;-65
2023/12/23 07:52:57;;;;;;;1.10;0.90;;;;;;;7.82;69.53;99055.44;10518044;28;20067;-64
2023/12/23 07:57:59;;;;;;;2.20;0.70;;;;;;;7.87;69.36;99058.59;10518321;28;20051;-64
2023/12/23 08:03:01;;;;;;;1.30;0.93;;;;;;;7.82;69.57;99047.63;10517331;28;20127;-65
2023/12/23 08:08:04;;;;;;;0.73;0.73;;;;;;;7.96;69.06;99042.38;10518124;28;20032;-64
2023/12/23 08:13:09;;;;;;;1.30;0.70;;;;;;;8.02;68.82;99041.16;10514160;28;20562;-64
2023/12/23 08:18:11;;;;;;;0.60;0.60;;;;;;;8.00;68.87;99036.03;10516418;28;20043;-65
2023/12/23 08:23:14;;;;;;;1.33;0.65;;;;;;;7.98;68.92;99048.31;10510355;28;20468;-65
2023/12/23 08:28:16;;;;;;;0.57;0.50;;;;;;;8.10;68.69;99053.72;10511789;28;20083;-65
2023/12/23 08:33:18;;;;;;;0.35;0.30;;;;;;;8.11;68.71;99053.63;10528776;27;20040;-64
2023/12/23 08:38:20;;;;;;;1.50;0.88;;;;;;;8.16;68.90;99048.13;10511306;28;21273;-65
2023/12/23 08:43:22;;;;;;;0.85;0.70;;;;;;;8.13;69.12;99046.56;10495519;28;20040;-65
2023/12/23 08:48:24;;;;;;;1.98;0.60;;;;;;;8.22;69.13;99061.56;10511227;28;20488;-73
2023/12/23 08:53:26;;;;;;;4.43;1.30;;;;;;;8.32;68.70;99051.44;10495144;28;20054;-72
2023/12/23 08:58:30;;;;;;;1.48;0.60;;;;;;;8.29;68.85;99033.38;10511500;28;20044;-72
2023/12/23 09:03:32;;;;;;;0.60;0.60;;;;;;;8.33;69.17;99025.28;10507413;28;20056;-75
2023/12/23 09:08:34;;;;;;;0.82;0.77;;;;;;;8.28;69.46;99032.53;10508560;28;20052;-75
2023/12/23 09:13:37;;;;;;;0.68;0.45;;;;;;;8.32;69.41;99036.63;10509624;28;20048;-76
2023/12/23 09:18:39;;;;;;;1.00;0.70;;;;;;;8.39;69.29;99035.28;10476717;28;20051;-75
2023/12/23 09:23:41;;;;;;;1.40;0.80;;;;;;;8.41;69.37;99043.84;10510956;28;20055;-74
2023/12/23 09:28:43;;;;;;;0.50;0.50;;;;;;;8.40;69.54;99051.75;10511995;28;20036;-74
2023/12/23 09:33:45;;;;;;;2.53;1.25;;;;;;;8.42;69.52;99052.50;10512029;28;20051;-72
2023/12/23 09:38:47;;;;;;;1.40;0.50;;;;;;;8.42;69.32;99060.31;10512015;28;20143;-74
2023/12/23 09:43:50;;;;;;;0.50;0.50;;;;;;;8.40;69.13;99070.00;10528780;28;20051;-72
2023/12/23 09:48:52;;;;;;;0.40;0.40;;;;;;;8.38;69.40;99103.13;10511366;28;20036;-73
2023/12/23 09:54:00;;;;;;;0.60;0.60;;;;;;;8.26;69.21;99091.72;10520065;28;20101;-73
2023/12/23 09:59:03;;;;;;;0.50;0.50;;;;;;;8.50;68.90;99090.16;10516669;28;20036;-73
2023/12/23 10:04:05;;;;;;;1.25;0.70;;;;;;;8.50;69.09;99094.53;10519661;28;20503;-72
2023/12/23 10:09:10;;;;;;;0.28;0.28;;;;;;;8.61;69.12;99090.28;10518664;28;20418;-73
2023/12/23 10:14:12;;;;;;;0.28;0.28;;;;;;;8.78;68.68;99086.59;10534896;27;20443;-73
2023/12/23 10:19:14;;;;;;;0.55;0.40;;;;;;;8.72;69.02;99087.00;10515500;28;20040;-74
2023/12/23 10:24:16;;;;;;;0.38;0.38;;;;;;;8.76;68.78;99085.84;10514468;28;20044;-74
2023/12/23 10:29:20;;;;;;;0.50;0.32;;;;;;;8.73;69.12;99079.06;10500397;28;20403;-73
2023/12/23 10:34:25;;;;;;;0.43;0.43;;;;;;;8.77;69.12;99087.53;10517922;28;20051;-74
2023/12/23 10:39:31;;;;;;;0.20;0.20;;;;;;;8.70;69.15;99068.84;10509107;28;20040;-75
2023/12/23 10:44:35;;;;;;;0.50;0.50;;;;;;;8.85;69.03;99082.66;10516671;28;20401;-75
2023/12/23 10:49:38;;;;;;;0.75;0.70;;;;;;;8.84;69.16;99089.63;10516636;28;20046;-75
2023/12/23 10:54:40;;;;;;;0.52;0.52;;;;;;;8.80;69.40;99102.97;10516733;28;20048;-75
2023/12/23 10:59:42;;;;;;;0.73;0.68;;;;;;;8.79;68.71;99093.47;10517339;28;20052;-75
2023/12/23 11:04:48;;;;;;;0.60;0.60;;;;;;;8.89;68.63;99091.94;10515066;28;20074;-75
2023/12/23 11:09:52;;;;;;;0.70;0.70;;;;;;;9.05;67.77;99107.41;10497869;28;20428;-76
2023/12/23 11:14:57;;;;;;;0.73;0.70;;;;;;;8.95;68.05;99091.53;10516183;28;20040;-75
2023/12/23 11:20:01;;;;;;;1.23;0.70;;;;;;;8.99;67.97;99098.22;10515307;28;20178;-74
2023/12/23 11:25:24;;;;;;;0.63;0.40;;;;;;;9.03;68.05;99097.06;10513493;28;20560;-75
2023/12/23 11:30:26;;;;;;;0.60;0.60;;;;;;;9.02;68.18;99097.16;10512726;28;20058;-75
2023/12/23 11:35:29;;;;;;;1.10;0.80;;;;;;;9.04;68.26;99106.56;10497021;28;20105;-75
2023/12/23 11:40:31;;;;;;;0.80;0.60;;;;;;;9.12;68.22;99103.44;10477160;28;20076;-75
2023/12/23 11:45:38;;;;;;;0.82;0.60;;;;;;;9.11;67.90;99092.19;10512371;28;20552;-75
2023/12/23 11:50:43;;;;;;;0.73;0.52;;;;;;;9.19;67.56;99084.69;10493224;28;20080;-75
2023/12/23 11:55:45;;;;;;;1.85;1.00;;;;;;;9.23;67.17;99085.28;10477637;28;20044;-75
2023/12/23 12:00:52;;;;;;;0.77;0.77;;;;;;;9.23;66.76;99091.34;10508761;28;20500;-75
2023/12/23 12:06:02;;;;;;;1.40;0.70;;;;;;;9.14;66.92;99096.34;10491966;28;20462;-74
2023/12/23 12:11:07;;;;;;;1.17;0.90;;;;;;;9.27;66.76;99095.44;10511149;28;20541;-75
2023/12/23 12:16:13;;;;;;;0.70;0.70;;;;;;;9.25;66.92;99086.88;10488309;28;20083;-74
2023/12/23 12:21:20;;;;;;;1.17;0.80;;;;;;;9.33;67.02;99096.78;10491786;28;20113;-74
2023/12/23 12:26:24;;;;;;;2.17;0.80;;;;;;;9.21;66.45;99101.06;10489735;28;20050;-75
2023/12/23 12:31:29;;;;;;;2.03;1.00;;;;;;;9.40;66.66;99091.03;10508468;28;20044;-74
2023/12/23 12:36:33;;;;;;;4.22;0.90;;;;;;;9.34;66.56;99072.38;10512348;28;20057;-74
2023/12/23 12:41:39;;;;;;;1.30;0.95;;;;;;;9.36;66.77;99078.31;10510865;28;20044;-75
2023/12/23 12:46:46;;;;;;;1.88;0.77;;;;;;;9.36;66.67;99071.31;10512167;28;20454;-75
2023/12/23 12:51:50;;;;;;;0.63;0.63;;;;;;;9.35;66.88;99095.75;10494954;28;20138;-74
2023/12/23 12:56:55;;;;;;;1.10;0.88;;;;;;;9.02;67.10;99108.44;10511413;28;20079;-74
2023/12/23 13:01:58;;;;;;;1.45;0.70;;;;;;;9.20;67.08;99115.03;10526286;28;20543;-74
2023/12/23 13:07:01;;;;;;;0.77;0.65;;;;;;;9.21;67.00;99124.53;10511926;28;20566;-74
2023/12/23 13:12:08;;;;;;;1.02;0.63;;;;;;;9.10;67.55;99137.44;10509984;28;20059;-74
2023/12/23 13:17:10;;;;;;;3.42;1.35;;;;;;;9.16;67.48;99134.44;10510288;28;20579;-74
2023/12/23 13:22:14;;;;;;;1.95;1.13;;;;;;;9.06;67.40;99127.31;10510702;28;20055;-74
2023/12/23 13:27:18;;;;;;;0.90;0.77;;;;;;;9.12;67.39;99156.44;10509188;28;20040;-74
2023/12/23 13:32:20;;;;;;;3.60;0.90;;;;;;;9.09;66.88;99150.59;10500401;28;20055;-75
2023/12/23 13:37:24;;;;;;;3.13;1.42;;;;;;;9.11;66.98;99149.56;10517733;28;20052;-74
2023/12/23 13:42:26;;;;;;;0.95;0.82;;;;;;;9.24;66.33;99147.81;10501142;28;20133;-74
2023/12/23 13:47:31;;;;;;;3.22;0.90;;;;;;;9.23;65.00;99159.19;10484313;28;20852;-74
2023/12/23 13:52:39;;;;;;;1.73;0.70;;;;;;;9.47;63.76;99174.97;10518207;28;20055;-74
2023/12/23 13:57:42;;;;;;;1.48;0.98;;;;;;;9.51;63.85;99163.38;10516391;28;20457;-75
2023/12/23 14:02:46;;;;;;;1.83;0.95;;;;;;;9.52;63.87;99175.50;10518620;28;20076;-75
2023/12/23 14:07:51;;;;;;;1.95;0.90;;;;;;;9.48;63.57;99194.94;10515073;28;20044;-74
2023/12/23 14:12:54;;;;;;;0.80;0.77;;;;;;;9.51;63.30;99192.94;10516193;28;20504;-75
2023/12/23 14:17:56;;;;;;;0.80;0.70;;;;;;;9.59;63.35;99208.06;10517099;28;20044;-74
2023/12/23 14:23:00;;;;;;;1.77;0.70;;;;;;;9.44;62.52;99216.94;10517070;28;20346;-74
2023/12/23 14:28:02;;;;;;;0.70;0.60;;;;;;;9.45;62.42;99221.22;10497287;28;20036;-74
2023/12/23 14:33:04;;;;;;;0.45;0.43;;;;;;;9.42;62.49;99224.84;10498109;28;20680;-74
2023/12/23 14:38:06;;;;;;;3.30;0.80;;;;;;;9.41;62.15;99235.41;10514674;28;20209;-74
2023/12/23 14:43:11;;;;;;;1.10;0.93;;;;;;;9.37;62.35;99245.22;10515979;28;20046;-74
2023/12/23 14:48:15;;;;;;;2.28;0.50;;;;;;;9.30;62.65;99256.97;10496079;28;20040;-74
2023/12/23 14:53:17;;;;;;;0.80;0.80;;;;;;;9.34;62.56;99270.69;10515226;28;20526;-74
2023/12/23 14:58:19;;;;;;;2.83;0.98;;;;;;;9.24;62.87;99267.81;10514869;28;20044;-75
2023/12/23 15:03:22;;;;;;;3.83;1.25;;;;;;;9.30;63.15;99285.69;10515514;28;20136;-74
2023/12/23 15:08:26;;;;;;;1.23;0.82;;;;;;;8.92;64.40;99289.91;10496716;28;20117;-74
2023/12/23 15:13:35;;;;;;;4.82;1.10;;;;;;;8.96;64.60;99307.03;10514191;28;20105;-74
2023/12/23 15:18:42;;;;;;;2.17;0.65;;;;;;;8.88;64.90;99298.00;10529393;27;20059;-76
2023/12/23 15:23:44;;;;;;;3.17;0.95;;;;;;;8.84;64.94;99308.66;10531383;28;20058;-75
2023/12/23 15:28:47;;;;;;;0.90;0.70;;;;;;;8.72;65.36;99311.19;10512591;28;20048;-74
2023/12/23 15:33:50;;;;;;;2.63;1.00;;;;;;;8.56;65.66;99303.47;10516781;28;20105;-74
2023/12/23 15:38:52;;;;;;;1.27;0.80;;;;;;;8.60;65.71;99294.53;10513572;28;20048;-74
2023/12/23 15:44:01;;;;;;;0.88;0.77;;;;;;;8.72;65.56;99295.53;10514584;28;20439;-74
2023/12/23 15:49:06;;;;;;;0.98;0.68;;;;;;;8.76;64.98;99295.25;10492559;28;20454;-73
2023/12/23 15:54:11;;;;;;;2.58;1.02;;;;;;;8.87;64.61;99291.97;10513792;28;20052;-74
2023/12/23 15:59:17;;;;;;;0.70;0.70;;;;;;;8.92;64.03;99299.50;10513788;28;20063;-75
2023/12/23 16:04:25;;;;;;;2.05;0.90;;;;;;;8.98;63.51;99309.53;10514221;28;20389;-74
2023/12/23 16:09:28;;;;;;;1.63;1.48;;;;;;;9.02;62.17;99319.69;10511633;28;20415;-75
2023/12/23 16:14:32;;;;;;;0.55;0.52;;;;;;;9.15;62.29;99320.59;10511541;28;20105;-63
2023/12/23 16:19:36;;;;;;;3.33;0.90;;;;;;;9.17;61.84;99317.88;10509902;28;20048;-63
2023/12/23 16:24:41;;;;;;;2.75;0.90;;;;;;;9.25;61.85;99326.06;10512465;28;20118;-63
2023/12/23 16:29:46;;;;;;;2.38;1.05;;;;;;;9.12;60.75;99333.81;10490735;28;20036;-63
2023/12/23 16:34:49;;;;;;;1.55;0.90;;;;;;;9.31;61.30;99334.34;10527875;28;20063;-63
2023/12/23 16:39:55;;;;;;;1.00;0.73;;;;;;;9.33;61.03;99336.84;10489384;28;20250;-64
2023/12/23 16:44:59;;;;;;;4.68;0.90;;;;;;;9.34;60.92;99334.13;10494007;28;20051;-63
2023/12/23 16:50:03;;;;;;;1.48;0.77;;;;;;;9.40;60.74;99338.13;10509569;28;20063;-63
2023/12/23 16:55:11;;;;;;;2.83;1.02;;;;;;;9.50;60.38;99341.84;10486202;28;20044;-62
2023/12/23 17:00:14;;;;;;;2.13;1.10;;;;;;;9.44;59.86;99343.03;10508896;28;20134;-64
2023/12/23 17:05:23;;;;;;;1.75;1.17;;;;;;;9.52;59.93;99364.25;10510405;28;20105;-67
2023/12/23 17:10:29;;;;;;;1.20;0.90;;;;;;;9.59;59.47;99365.56;10522692;28;20446;-67
2023/12/23 17:15:34;;;;;;;2.92;1.05;;;;;;;9.44;58.79;99382.19;10511480;28;20582;-67
2023/12/23 17:20:36;;;;;;;0.90;0.77;;;;;;;9.56;59.02;99380.59;10509441;28;20047;-67
2023/12/23 17:25:39;;;;;;;2.13;1.02;;;;;;;9.64;58.90;99387.00;10509861;28;20044;-67
2023/12/23 17:30:42;;;;;;;1.20;1.05;;;;;;;9.64;58.79;99392.22;10487388;28;20052;-67
2023/12/23 17:35:44;;;;;;;1.33;0.77;;;;;;;9.59;58.33;99391.66;10476020;28;20511;-67
2023/12/23 17:40:49;;;;;;;1.40;0.93;;;;;;;9.52;58.15;99395.59;10508094;28;20253;-67
2023/12/23 17:45:53;;;;;;;1.33;1.23;;;;;;;9.64;58.64;99407.88;10491840;28;20040;-67
2023/12/23 17:50:57;;;;;;;1.67;1.27;;;;;;;9.59;58.10;99396.03;10519888;28;20898;-67
2023/12/23 17:56:06;;;;;;;1.48;1.02;;;;;;;9.57;57.24;99403.97;10510187;28;20468;-66
2023/12/23 18:01:08;;;;;;;1.65;1.17;;;;;;;9.50;58.39;99404.47;10476977;28;20039;-66
2023/12/23 18:06:11;;;;;;;4.30;1.38;;;;;;;9.52;58.24;99395.59;10512997;28;20697;-66
2023/12/23 18:11:13;;;;;;;2.05;1.02;;;;;;;9.59;58.21;99399.50;10490054;28;20060;-66
2023/12/23 18:16:15;;;;;;;1.23;1.00;;;;;;;9.58;58.19;99394.38;10538266;27;20044;-66
2023/12/23 18:21:17;;;;;;;1.33;1.00;;;;;;;9.54;58.00;99401.53;10521008;28;20155;-66
2023/12/23 18:26:19;;;;;;;2.50;1.10;;;;;;;9.54;58.07;99385.06;10535213;28;20040;-66
2023/12/23 18:31:21;;;;;;;7.72;1.02;;;;;;;9.52;57.99;99394.78;10518704;28;20510;-67
2023/12/23 18:36:23;;;;;;;1.92;0.65;;;;;;;9.57;58.23;99383.09;10519117;28;20131;-66
2023/12/23 18:41:25;;;;;;;1.02;0.70;;;;;;;9.62;58.11;99386.25;10519654;28;20426;-67
2023/12/23 18:46:27;;;;;;;2.08;1.02;;;;;;;9.51;57.98;99385.25;10519901;28;20043;-66
2023/12/23 18:51:31;;;;;;;4.07;1.40;;;;;;;9.51;58.00;99388.72;10496626;28;20052;-66
2023/12/23 18:56:33;;;;;;;0.70;0.70;;;;;;;9.57;57.65;99383.09;10519267;28;20834;-67
2023/12/23 19:01:35;;;;;;;1.15;0.77;;;;;;;9.58;57.56;99383.94;10516626;28;20342;-67
2023/12/23 19:06:37;;;;;;;0.73;0.70;;;;;;;9.50;57.45;99384.41;10517696;28;20576;-66
2023/12/23 19:11:41;;;;;;;0.40;0.40;;;;;;;9.57;57.55;99383.09;10515122;28;20058;-66
2023/12/23 19:16:46;;;;;;;0.77;0.65;;;;;;;9.52;57.67;99379.09;10516481;28;20326;-66
2023/12/23 19:21:49;;;;;;;1.10;0.70;;;;;;;9.50;58.00;99375.75;10498496;28;20054;-67
2023/12/23 19:26:51;;;;;;;0.90;0.60;;;;;;;9.57;57.70;99382.25;10498470;28;20052;-66
2023/12/23 19:31:54;;;;;;;0.95;0.52;;;;;;;9.61;57.41;99381.97;10515615;28;20036;-67
2023/12/23 19:36:57;;;;;;;1.23;0.70;;;;;;;9.56;56.91;99397.06;10515150;28;20091;-67
2023/12/23 19:42:02;;;;;;;0.85;0.55;;;;;;;9.66;56.41;99399.97;10513306;28;20044;-67
2023/12/23 19:47:04;;;;;;;1.45;0.70;;;;;;;9.80;56.86;99393.84;10514167;28;20044;-67
2023/12/23 19:52:06;;;;;;;1.02;0.65;;;;;;;9.58;56.52;99391.78;10492185;28;20059;-67
2023/12/23 19:57:08;;;;;;;0.93;0.65;;;;;;;9.52;55.69;99390.38;10509593;28;20051;-67
2023/12/23 20:02:11;;;;;;;1.77;1.08;;;;;;;9.67;56.37;99406.84;10498690;28;20068;-67
2023/12/23 20:07:14;;;;;;;2.78;1.00;;;;;;;9.70;56.33;99417.13;10492645;28;20055;-67
2023/12/23 20:12:16;;;;;;;0.80;0.65;;;;;;;9.80;56.38;99422.56;10510951;28;20056;-67
2023/12/23 20:17:18;;;;;;;2.65;0.77;;;;;;;9.69;56.25;99396.34;10506261;28;20077;-67
2023/12/23 20:22:21;;;;;;;0.40;0.40;;;;;;;9.67;56.37;99393.81;10513070;28;20516;-67
2023/12/23 20:27:23;;;;;;;1.67;1.00;;;;;;;9.58;56.62;99400.41;10510458;28;20044;-67
2023/12/23 20:32:27;;;;;;;0.45;0.45;;;;;;;9.42;56.92;99415.38;10510741;28;20504;-67
2023/12/23 20:37:29;;;;;;;1.02;0.70;;;;;;;9.54;57.13;99403.34;10506484;28;20420;-67
2023/12/23 20:42:31;;;;;;;0.60;0.45;;;;;;;9.58;57.26;99407.44;10511500;28;20790;-66
2023/12/23 20:47:33;;;;;;;0.90;0.52;;;;;;;9.57;57.20;99411.81;10513708;28;20573;-66
2023/12/23 20:52:35;;;;;;;0.60;0.60;;;;;;;9.60;57.58;99416.00;10513472;28;20939;-66
2023/12/23 20:57:37;;;;;;;1.90;1.00;;;;;;;9.52;57.80;99415.66;10514424;28;20583;-66
2023/12/23 21:02:39;;;;;;;0.73;0.57;;;;;;;9.46;57.90;99411.63;10515433;28;20903;-67
2023/12/23 21:07:42;;;;;;;0.68;0.50;;;;;;;9.38;58.08;99413.91;10514156;28;20211;-66
2023/12/23 21:12:46;;;;;;;1.65;0.60;;;;;;;9.22;58.49;99413.19;10514265;28;20655;-66
2023/12/23 21:17:48;;;;;;;0.75;0.50;;;;;;;9.11;58.49;99413.03;10490437;28;20056;-66
2023/12/23 21:22:50;;;;;;;1.08;0.70;;;;;;;9.18;58.41;99395.22;10513366;28;20085;-67
2023/12/23 21:27:53;;;;;;;1.00;0.77;;;;;;;9.12;58.11;99391.22;10513489;28;20036;-66
2023/12/23 21:32:55;;;;;;;0.70;0.60;;;;;;;8.93;58.11;99385.47;10513697;28;20048;-67
2023/12/23 21:37:57;;;;;;;0.40;0.40;;;;;;;9.13;58.17;99400.72;10496795;28;20052;-67
2023/12/23 21:42:59;;;;;;;0.73;0.60;;;;;;;9.35;57.92;99398.44;10513337;28;20723;-67
2023/12/23 21:48:02;;;;;;;2.45;0.80;;;;;;;9.26;58.33;99411.25;10518162;28;20500;-66
2023/12/23 21:53:04;;;;;;;0.85;0.57;;;;;;;9.35;58.54;99405.44;10522160;28;20047;-67
2023/12/23 21:58:09;;;;;;;0.63;0.57;;;;;;;9.19;59.21;99410.78;10521207;28;20048;-67
2023/12/23 22:03:11;;;;;;;1.17;0.70;;;;;;;9.25;59.34;99396.50;10521163;28;20123;-67
2023/12/23 22:08:13;;;;;;;0.90;0.70;;;;;;;9.10;60.09;99407.88;10522287;28;20059;-67
2023/12/23 22:13:15;;;;;;;2.83;0.70;;;;;;;9.15;60.03;99417.13;10521569;28;20051;-66
2023/12/23 22:18:17;;;;;;;0.50;0.50;;;;;;;9.25;59.90;99423.44;10520978;28;20040;-66
2023/12/23 22:23:19;;;;;;;0.50;0.50;;;;;;;9.24;59.82;99421.75;10522090;28;20051;-66
2023/12/23 22:28:21;;;;;;;0.50;0.50;;;;;;;9.13;60.31;99432.03;10503500;28;20130;-67
2023/12/23 22:33:23;;;;;;;0.73;0.50;;;;;;;9.16;60.38;99416.19;10501770;28;20348;-66
2023/12/23 22:38:25;;;;;;;1.02;0.60;;;;;;;9.20;60.12;99422.88;10521560;28;20110;-67
2023/12/23 22:43:27;;;;;;;1.30;0.50;;;;;;;9.21;60.08;99411.53;10520751;28;20796;-67
2023/12/23 22:48:29;;;;;;;0.50;0.50;;;;;;;9.16;60.29;99418.78;10521167;28;20073;-67
2023/12/23 22:53:33;;;;;;;0.45;0.43;;;;;;;9.30;60.07;99402.28;10498535;28;20174;-67
2023/12/23 22:58:35;;;;;;;0.47;0.45;;;;;;;9.07;61.35;99421.97;10497906;28;20055;-67
2023/12/23 23:03:37;;;;;;;1.75;0.50;;;;;;;8.93;62.44;99405.50;10501795;28;20051;-66
2023/12/23 23:08:39;;;;;;;0.55;0.55;;;;;;;8.95;62.23;99401.03;10520351;28;20458;-66
2023/12/23 23:13:41;;;;;;;0.85;0.47;;;;;;;8.80;63.40;99395.81;10518950;28;20055;-67
2023/12/23 23:18:43;;;;;;;1.55;0.50;;;;;;;8.93;62.63;99400.28;10502099;28;20044;-68
2023/12/23 23:23:45;;;;;;;1.42;0.90;;;;;;;8.79;63.32;99393.31;10518325;28;20114;-65
2023/12/23 23:28:47;;;;;;;0.50;0.50;;;;;;;8.88;62.75;99404.91;10519966;28;20142;-65
2023/12/23 23:33:49;;;;;;;1.33;0.70;;;;;;;8.90;62.75;99392.63;10510903;28;20124;-65
2023/12/23 23:38:51;;;;;;;0.40;0.40;;;;;;;9.01;62.36;99385.84;10518487;28;20048;-65
2023/12/23 23:43:57;;;;;;;0.50;0.50;;;;;;;9.03;62.18;99370.94;10499960;28;20150;-67
2023/12/23 23:48:59;;;;;;;0.30;0.30;;;;;;;9.03;61.88;99367.47;10518784;28;20047;-66